Murphys, California
Current Conditions -  °F | °C
As of 11:55 AM on Tuesday 21 Oct 2014 (Local Time) from KO22 Reporting Station
Clear Clear  
Wind Chill: 66°   Ceiling: Unl
Heat Index: 66°   Visibility: 10mi
Dew Point: 39°   Wind: 7mph
Humidity: 37%   Direction: 290°WNW
Pressure: 30.05"   Gusts: NA
Location:  38.15°N, 120.46°W
Report Text: KO22 211855Z AUTO 29006KT 10SM CLR 19/04 A3005 RMK AO1
Loading
Personal Weather Stations






























Interactive Weather Map
Tropical Storm Tracking
New forecast layout! Learn more

10-Day Weather Forecast

Advertisements
Track Severe Weather on mobile